Terminal Aerodrome Forecast
Issued by NWS

Home | Current Version | Previous Version | Text Only | Print | Product List | Glossary On
Versions: 1 2 3 4 5 6 7 8 9 10 11 12
000
FTUS42 KTBW 020500
TAFLAL
TAF
KLAL 020532Z 0206/0306 VRB03KT P6SM FEW030 SCT250
     FM021400 07005KT P6SM SCT030 SCT150
     FM021800 07007KT P6SM VCTS SCT040CB BKN150
     FM030100 09004KT P6SM BKN100 BKN250
      AMD NOT SKED 0206/0212=

USA.gov is the U.S. government's official web portal to all federal, state and local government web resources and services.